createdAt,value
2018-08-19T00:05:05.260Z,23.20
2018-08-19T00:10:08.515Z,23.20
2018-08-19T00:15:11.748Z,23.10
2018-08-19T00:20:14.983Z,23.20
2018-08-19T00:25:29.568Z,23.10
2018-08-19T00:30:33.168Z,23.10
2018-08-19T00:35:36.398Z,23.00
2018-08-19T00:40:39.970Z,23.00
2018-08-19T00:45:43.187Z,23.00
2018-08-19T00:50:46.418Z,22.90
2018-08-19T00:55:50.627Z,22.90
2018-08-19T01:00:53.868Z,22.90
2018-08-19T01:05:57.084Z,22.40
2018-08-19T01:11:00.295Z,22.80
2018-08-19T01:16:03.496Z,22.50
2018-08-19T01:21:10.576Z,22.70
2018-08-19T01:26:13.832Z,22.70
2018-08-19T01:31:17.048Z,22.50
2018-08-19T01:36:20.275Z,22.70
2018-08-19T01:41:23.644Z,22.50
2018-08-19T01:46:26.847Z,22.60
2018-08-19T01:51:30.036Z,22.60
2018-08-19T01:56:33.583Z,22.60
2018-08-19T02:01:49.939Z,22.70
2018-08-19T02:06:53.161Z,22.60
2018-08-19T02:11:57.439Z,22.80
2018-08-19T02:17:00.640Z,22.60
2018-08-19T02:22:03.868Z,22.70
2018-08-19T02:27:07.089Z,22.40
2018-08-19T02:32:11.011Z,22.00
2018-08-19T02:37:16.141Z,22.40
2018-08-19T02:42:26.343Z,22.40
2018-08-19T02:47:29.700Z,22.60
2018-08-19T02:52:35.084Z,22.50
2018-08-19T02:57:40.483Z,22.30
2018-08-19T03:02:43.724Z,22.50
2018-08-19T03:07:46.941Z,22.30
2018-08-19T03:12:50.156Z,22.30
2018-08-19T03:17:53.373Z,22.30
2018-08-19T03:22:56.604Z,22.00
2018-08-19T03:27:59.819Z,22.20
2018-08-19T03:33:03.048Z,22.20
2018-08-19T03:38:10.970Z,22.40
2018-08-19T03:43:14.172Z,22.10
2018-08-19T03:48:17.388Z,22.10
2018-08-19T03:53:20.597Z,22.10
2018-08-19T03:58:23.828Z,22.20
2018-08-19T04:03:27.047Z,22.00
2018-08-19T04:08:35.660Z,22.00
2018-08-19T04:13:40.060Z,21.70
2018-08-19T04:18:45.019Z,22.20
2018-08-19T04:23:49.352Z,21.60
2018-08-19T04:28:52.557Z,21.90
2018-08-19T04:33:55.762Z,21.90
2018-08-19T04:38:58.960Z,21.60
2018-08-19T04:44:02.172Z,21.70
2018-08-19T04:49:05.389Z,21.80
2018-08-19T04:54:08.583Z,21.80
2018-08-19T04:59:11.803Z,21.80
2018-08-19T05:04:15.130Z,21.80
2018-08-19T05:09:18.327Z,21.80
2018-08-19T05:14:21.553Z,21.60
2018-08-19T05:19:24.771Z,21.50
2018-08-19T05:24:28.008Z,21.70
2018-08-19T05:29:31.265Z,21.70
2018-08-19T05:34:36.647Z,21.50
2018-08-19T05:39:45.024Z,21.60
2018-08-19T05:44:48.272Z,21.60
2018-08-19T05:49:51.527Z,21.60
2018-08-19T05:54:58.895Z,21.50
2018-08-19T06:00:06.368Z,21.60
2018-08-19T06:05:09.617Z,21.70
2018-08-19T06:10:12.831Z,21.60
2018-08-19T06:15:16.045Z,21.70
2018-08-19T06:20:19.259Z,21.70
2018-08-19T06:25:22.488Z,21.90
2018-08-19T06:30:25.702Z,21.90
2018-08-19T06:35:28.920Z,22.00
2018-08-19T06:40:32.166Z,21.70
2018-08-19T06:45:35.388Z,22.10
2018-08-19T06:50:38.611Z,21.90
2018-08-19T06:55:41.844Z,22.00
2018-08-19T07:00:51.616Z,21.90
2018-08-19T07:06:09.520Z,22.50
2018-08-19T07:11:12.743Z,22.20
2018-08-19T07:16:16.128Z,22.20
2018-08-19T07:21:19.325Z,22.20
2018-08-19T07:26:22.527Z,22.20
2018-08-19T07:31:25.720Z,22.60
2018-08-19T07:36:28.912Z,22.60
2018-08-19T07:41:32.132Z,22.70
2018-08-19T07:46:35.343Z,22.60
2018-08-19T07:51:38.997Z,22.60
2018-08-19T07:56:42.201Z,22.60
2018-08-19T08:01:45.439Z,22.40
2018-08-19T08:06:48.673Z,22.80
2018-08-19T08:11:51.892Z,22.90
2018-08-19T08:16:55.807Z,22.80
2018-08-19T08:22:17.224Z,22.90
2018-08-19T08:27:20.423Z,23.00
2018-08-19T08:32:23.651Z,23.10
2018-08-19T08:37:26.871Z,23.10
2018-08-19T08:42:34.592Z,22.90
2018-08-19T08:47:37.874Z,23.40
2018-08-19T08:52:44.299Z,23.40
2018-08-19T08:57:47.521Z,23.00
2018-08-19T09:02:50.763Z,23.40
2018-08-19T09:07:53.983Z,23.70
2018-08-19T09:12:57.208Z,23.70
2018-08-19T09:18:00.415Z,23.80
2018-08-19T09:23:03.781Z,23.90
2018-08-19T09:28:06.880Z,24.00
2018-08-19T09:33:10.283Z,24.10
2018-08-19T09:38:18.921Z,24.20
2018-08-19T09:43:22.144Z,24.30
2018-08-19T09:48:25.372Z,24.40
2018-08-19T09:53:28.596Z,24.50
2018-08-19T09:58:31.820Z,24.60
2018-08-19T10:03:35.118Z,24.70
2018-08-19T10:08:38.288Z,24.90
2018-08-19T10:13:41.532Z,25.00
2018-08-19T10:18:44.740Z,25.10
2018-08-19T10:23:47.956Z,25.10
2018-08-19T10:28:51.180Z,25.20
2018-08-19T10:33:54.415Z,25.30
2018-08-19T10:38:57.629Z,25.40
2018-08-19T10:44:00.844Z,25.50
2018-08-19T10:49:04.071Z,25.60
2018-08-19T10:54:07.300Z,25.70
2018-08-19T10:59:13.825Z,25.80
2018-08-19T11:04:17.058Z,25.80
2018-08-19T11:09:20.264Z,25.90
2018-08-19T11:14:23.579Z,26.00
2018-08-19T11:19:31.100Z,26.10
2018-08-19T11:24:37.248Z,26.20
2018-08-19T11:29:41.503Z,26.20
2018-08-19T11:34:44.856Z,26.30
2018-08-19T11:39:48.121Z,26.30
2018-08-19T11:44:51.347Z,26.40
2018-08-19T11:49:54.648Z,26.50
2018-08-19T11:54:57.856Z,26.60
2018-08-19T12:00:01.117Z,26.70
2018-08-19T12:05:04.531Z,26.60
2018-08-19T12:10:07.772Z,26.70
2018-08-19T12:15:11.019Z,26.80
2018-08-19T12:20:17.490Z,26.80
2018-08-19T12:25:20.716Z,26.90
2018-08-19T12:30:23.948Z,27.10
2018-08-19T12:35:27.220Z,27.10
2018-08-19T12:40:30.429Z,27.10
2018-08-19T12:45:33.660Z,27.20
2018-08-19T12:50:36.950Z,27.20
2018-08-19T12:55:40.263Z,27.30
2018-08-19T13:00:43.575Z,27.30
2018-08-19T13:05:59.655Z,27.30
2018-08-19T13:11:04.624Z,27.30
2018-08-19T13:16:07.861Z,27.40
2018-08-19T13:21:16.176Z,27.50
2018-08-19T13:26:19.486Z,27.40
2018-08-19T13:31:26.921Z,27.40
2018-08-19T13:36:30.128Z,27.40
2018-08-19T13:41:33.340Z,27.40
2018-08-19T13:46:36.620Z,27.40
2018-08-19T13:51:39.835Z,27.40
2018-08-19T13:56:43.372Z,27.50
2018-08-19T14:01:46.604Z,27.60
2018-08-19T14:06:49.811Z,27.70
2018-08-19T14:11:53.023Z,27.70
2018-08-19T14:16:56.251Z,27.60
2018-08-19T14:21:59.630Z,27.80
2018-08-19T14:27:02.864Z,27.70
2018-08-19T14:32:06.451Z,27.90
2018-08-19T14:37:09.693Z,27.90
2018-08-19T14:42:12.991Z,27.90
2018-08-19T14:47:16.215Z,27.90
2018-08-19T14:52:19.495Z,28.00
2018-08-19T14:57:22.895Z,28.10
2018-08-19T15:02:26.139Z,28.00
2018-08-19T15:07:29.361Z,28.00
2018-08-19T15:12:32.571Z,28.10
2018-08-19T15:17:35.804Z,28.00
2018-08-19T15:22:39.037Z,28.00
2018-08-19T15:27:47.672Z,28.00
2018-08-19T15:32:51.286Z,28.00
2018-08-19T15:37:54.184Z,28.10
2018-08-19T15:42:57.448Z,28.00
2018-08-19T15:48:00.843Z,28.00
2018-08-19T15:53:08.555Z,28.00
2018-08-19T15:58:11.768Z,28.00
2018-08-19T16:03:14.980Z,28.00
2018-08-19T16:08:18.216Z,28.10
2018-08-19T16:13:21.435Z,28.20
2018-08-19T16:18:24.639Z,28.10
2018-08-19T16:33:05.931Z,28.10
2018-08-19T16:38:09.155Z,27.70
2018-08-19T16:43:12.396Z,27.70
2018-08-19T16:48:15.629Z,27.80
2018-08-19T16:53:18.919Z,27.70
2018-08-19T16:58:22.144Z,27.80
2018-08-19T17:03:32.089Z,27.80
2018-08-19T17:08:35.300Z,27.70
2018-08-19T17:13:38.516Z,27.70
2018-08-19T17:18:41.736Z,27.60
2018-08-19T17:23:48.469Z,27.60
2018-08-19T17:28:51.873Z,27.60
2018-08-19T17:33:55.112Z,27.60
2018-08-19T17:39:01.266Z,27.60
2018-08-19T17:44:04.532Z,27.60
2018-08-19T17:49:12.356Z,27.60
2018-08-19T17:54:20.990Z,27.60
2018-08-19T17:59:24.254Z,27.50
2018-08-19T18:04:27.927Z,27.50
2018-08-19T18:09:31.164Z,27.40
2018-08-19T18:14:35.161Z,27.40
2018-08-19T18:19:38.361Z,27.40
2018-08-19T18:24:44.936Z,27.30
2018-08-19T18:29:49.140Z,27.30
2018-08-19T18:34:52.360Z,27.20
2018-08-19T18:39:55.710Z,27.20
2018-08-19T18:45:00.871Z,27.20
2018-08-19T18:50:08.520Z,27.10
2018-08-19T18:55:11.756Z,27.00
2018-08-19T19:00:15.028Z,27.00
2018-08-19T19:05:30.100Z,26.90
2018-08-19T19:10:33.471Z,26.90
2018-08-19T19:15:38.971Z,26.80
2018-08-19T19:20:47.282Z,26.80
2018-08-19T19:25:51.606Z,26.70
2018-08-19T19:31:00.899Z,26.60
2018-08-19T19:36:20.248Z,26.60
2018-08-19T19:41:27.811Z,26.50
2018-08-19T19:46:31.089Z,26.40
2018-08-19T19:51:34.333Z,26.30
2018-08-19T19:56:37.567Z,26.20
2018-08-19T20:01:41.012Z,26.20
2018-08-19T20:06:44.240Z,26.10
2018-08-19T20:11:47.453Z,26.00
2018-08-19T20:16:50.699Z,25.90
2018-08-19T20:21:53.915Z,25.90
2018-08-19T20:26:57.188Z,25.80
2018-08-19T20:32:00.408Z,25.70
2018-08-19T20:37:03.761Z,25.70
2018-08-19T20:42:07.383Z,25.70
2018-08-19T20:47:10.614Z,25.60
2018-08-19T20:52:14.777Z,25.60
2018-08-19T20:57:18.000Z,25.60
2018-08-19T21:02:21.244Z,25.50
2018-08-19T21:07:24.480Z,25.40
2018-08-19T21:12:27.725Z,25.40
2018-08-19T21:17:31.695Z,25.40
2018-08-19T21:22:34.950Z,25.30
2018-08-19T21:27:38.180Z,25.30
2018-08-19T21:32:41.566Z,25.30
2018-08-19T21:37:46.472Z,25.20
2018-08-19T21:42:51.275Z,25.20
2018-08-19T21:47:54.512Z,25.20
2018-08-19T21:53:04.584Z,25.10
2018-08-19T21:58:07.975Z,25.10
2018-08-19T22:03:17.896Z,25.00
2018-08-19T22:08:22.780Z,25.00
2018-08-19T22:13:26.004Z,25.00
2018-08-19T22:18:30.516Z,24.90
2018-08-19T22:23:39.092Z,24.90
2018-08-19T22:28:42.682Z,24.90
2018-08-19T22:33:47.131Z,24.80
2018-08-19T22:38:51.040Z,24.80
2018-08-19T22:43:55.073Z,24.80
2018-08-19T22:48:58.790Z,24.80
2018-08-19T22:54:02.014Z,24.70
2018-08-19T22:59:05.239Z,24.70
2018-08-19T23:04:08.476Z,24.60
2018-08-19T23:09:11.699Z,24.60
2018-08-19T23:14:26.463Z,24.60
2018-08-19T23:19:29.692Z,24.60
2018-08-19T23:24:32.920Z,24.60
2018-08-19T23:29:36.144Z,24.50
2018-08-19T23:34:39.396Z,24.50
2018-08-19T23:39:42.617Z,24.50
2018-08-19T23:44:45.839Z,24.50
2018-08-19T23:49:49.076Z,24.50
2018-08-19T23:54:52.330Z,24.50
2018-08-19T23:59:55.584Z,24.50
